气象报文与情报通波
气象报文机场: ZGHA
ADDS - METARS form results

(0400 UTC 21 November 2019)
数据来源 http://aviationweather.gov/metar/data/
 
Forecast for: ZGHA (HUANGHUA/CHANGSH, CN)
Text: TAF ZGHA 201909Z 2100/2124 02004MPS 6000 NSC TX19/2106Z TN08/2122Z
Forecast period: 0000 UTC 21 November 2019 to 0000 UTC 22 November 2019
Forecast type: FROM: standard forecast or significant change
Winds: from the NNE (20 degrees) at 9 MPH (8 knots; 4.1 m/s)
Visibility: 4 miles (6 km)
Ceiling: unknown
Clouds: missing
Weather: no significant weather forecast for this period

 机场地图

 跑道信息
跑道 18 跑道长度 8530 ft 跑道宽度 148 ft
跑道标高 217 ft 跑道內移距离 0 ft 跑道磁航向 177
跑道 36 跑道长度 8530 ft 跑道宽度 148 ft
跑道标高 197 ft 跑道內移距离 0 ft 跑道磁航向 357

 机场频率
类型 APP 名称 CHANGSHU 频率 119.65 MHZ
类型 ATIS 名称 ATIS 频率 128.8 MHZ
类型 GND 名称 GND 频率 121.75 MHZ
类型 TWR 名称 TWR 频率 118.55 MHZ

 机场附近导航设备
类型 VOR-DME 名称 Changsha 频率 113300 KHZ



© FlySim.cn中国最大航空飞行视频网版权所有